Time;durP1;ratioP1;P1;durP2;ratioP2;P2;SDS_P1;SDS_P2;PMS_P1;PMS_P2;Temp;Humidity;BMP_temperature;BMP_pressure;BME280_temperature;BME280_humidity;BME280_pressure;Samples;Min_cycle;Max_cycle;Signal;HPM_P1;HPM_P2
2022/09/02 00:01:01;;;;;;;0.80;0.60;;;;;25.00;100673.00;;;;2087906;28;20573;-56
2022/09/02 00:02:01;;;;;;;0.80;0.67;;;;;25.00;100683.00;;;;2091536;28;20196;-56
2022/09/02 00:03:02;;;;;;;0.90;0.80;;;;;25.00;100686.00;;;;2086767;28;20447;-55
2022/09/02 00:04:08;;;;;;;0.70;0.50;;;;;24.90;100669.00;;;;2089100;28;20251;-56
2022/09/02 00:05:08;;;;;;;1.13;0.80;;;;;24.90;100681.00;;;;2078567;28;20636;-56
2022/09/02 00:06:09;;;;;;;1.20;0.90;;;;;24.90;100681.00;;;;2079209;28;20452;-56
2022/09/02 00:07:09;;;;;;;0.90;0.70;;;;;24.90;100677.00;;;;2087110;28;20278;-55
2022/09/02 00:08:09;;;;;;;1.60;0.80;;;;;24.90;100675.00;;;;2078227;28;20222;-56
2022/09/02 00:09:11;;;;;;;1.33;0.90;;;;;24.90;100672.00;;;;2087047;28;20329;-56
2022/09/02 00:10:12;;;;;;;0.73;0.60;;;;;24.90;100671.00;;;;2078582;28;20697;-56
2022/09/02 00:11:15;;;;;;;0.90;0.80;;;;;24.90;100668.00;;;;2079086;28;20241;-56
2022/09/02 00:12:15;;;;;;;1.33;0.90;;;;;24.90;100673.00;;;;2094206;28;20400;-56
2022/09/02 00:13:17;;;;;;;1.63;0.83;;;;;24.90;100656.00;;;;2095135;28;20687;-55
2022/09/02 00:14:28;;;;;;;1.20;1.00;;;;;24.90;100664.00;;;;2086882;28;20274;-56
2022/09/02 00:15:28;;;;;;;1.00;0.70;;;;;24.90;100664.00;;;;2089866;28;21055;-56
2022/09/02 00:16:30;;;;;;;1.10;0.70;;;;;24.90;100657.00;;;;2102906;28;20268;-55
2022/09/02 00:17:30;;;;;;;0.82;0.63;;;;;24.90;100659.00;;;;2095175;28;20204;-55
2022/09/02 00:18:32;;;;;;;0.90;0.60;;;;;24.90;100665.00;;;;2092817;28;20235;-56
2022/09/02 00:19:32;;;;;;;0.90;0.80;;;;;24.90;100655.00;;;;2078876;28;20214;-55
2022/09/02 00:20:32;;;;;;;1.00;0.90;;;;;24.90;100652.00;;;;2078922;28;20841;-56
2022/09/02 00:21:33;;;;;;;1.00;0.80;;;;;24.90;100653.00;;;;2087556;28;20615;-56
2022/09/02 00:22:33;;;;;;;1.00;0.70;;;;;24.90;100652.00;;;;2087780;28;20224;-55
2022/09/02 00:23:34;;;;;;;1.50;0.87;;;;;24.90;100659.00;;;;2087397;28;20229;-56
2022/09/02 00:24:34;;;;;;;1.17;0.73;;;;;24.90;100655.00;;;;2084863;28;20228;-56
2022/09/02 00:25:35;;;;;;;1.00;0.70;;;;;24.90;100656.00;;;;2087746;28;20611;-56
2022/09/02 00:26:36;;;;;;;0.90;0.60;;;;;24.90;100648.00;;;;2086607;28;20235;-56
2022/09/02 00:27:36;;;;;;;1.13;0.90;;;;;24.90;100651.00;;;;2085954;28;20652;-56
2022/09/02 00:28:37;;;;;;;1.20;0.80;;;;;24.90;100642.00;;;;2087583;28;20221;-56
2022/09/02 00:29:38;;;;;;;1.17;0.87;;;;;24.90;100650.00;;;;2087617;28;20240;-56
2022/09/02 00:30:39;;;;;;;1.65;0.80;;;;;24.90;100649.00;;;;2087214;28;20292;-56
2022/09/02 00:31:42;;;;;;;1.07;0.70;;;;;24.90;100652.00;;;;2087148;28;20219;-56
2022/09/02 00:32:43;;;;;;;1.10;0.97;;;;;24.90;100652.00;;;;2086748;28;20251;-56
2022/09/02 00:33:43;;;;;;;1.00;0.73;;;;;24.90;100647.00;;;;2086897;28;21283;-56
2022/09/02 00:34:43;;;;;;;0.90;0.80;;;;;24.90;100651.00;;;;2087565;28;20262;-56
2022/09/02 00:35:44;;;;;;;0.90;0.80;;;;;24.90;100653.00;;;;2087098;28;20227;-56
2022/09/02 00:36:44;;;;;;;0.90;0.77;;;;;24.90;100649.00;;;;2087500;28;20216;-56
2022/09/02 00:37:45;;;;;;;0.87;0.80;;;;;24.90;100656.00;;;;2092552;28;20242;-56
2022/09/02 00:38:45;;;;;;;0.80;0.70;;;;;24.90;100695.00;;;;2094045;28;20214;-55
2022/09/02 00:39:45;;;;;;;1.03;0.83;;;;;24.90;100642.00;;;;2086623;28;20696;-56
2022/09/02 00:40:46;;;;;;;1.00;0.80;;;;;24.90;100648.00;;;;2086855;28;20212;-56
2022/09/02 00:41:47;;;;;;;1.00;0.70;;;;;24.90;100650.00;;;;2094974;28;20273;-56
2022/09/02 00:42:48;;;;;;;0.80;0.73;;;;;24.90;100646.00;;;;2094944;28;20756;-56
2022/09/02 00:43:59;;;;;;;0.90;0.60;;;;;24.90;100649.00;;;;2095551;28;20680;-56
2022/09/02 00:45:01;;;;;;;1.08;0.70;;;;;24.90;100650.00;;;;2094135;28;20507;-56
2022/09/02 00:46:01;;;;;;;1.43;0.80;;;;;24.90;100650.00;;;;2094331;28;20345;-56
2022/09/02 00:47:01;;;;;;;0.93;0.73;;;;;24.40;100649.00;;;;2094592;28;20599;-56
2022/09/02 00:48:04;;;;;;;0.97;0.77;;;;;24.90;100647.00;;;;2093157;28;20212;-56
2022/09/02 00:49:23;;;;;;;1.10;0.70;;;;;24.90;100643.00;;;;2093928;28;20274;-56
2022/09/02 00:50:27;;;;;;;1.05;0.70;;;;;24.90;100637.00;;;;2093936;28;20216;-56
2022/09/02 00:51:36;;;;;;;0.80;0.70;;;;;24.90;100645.00;;;;2086833;28;20814;-57
2022/09/02 00:52:42;;;;;;;1.30;0.90;;;;;24.90;100641.00;;;;2086194;28;20514;-56
2022/09/02 00:53:43;;;;;;;1.00;0.70;;;;;24.90;100639.00;;;;2079347;28;20594;-56
2022/09/02 00:54:49;;;;;;;1.10;0.90;;;;;24.90;100621.00;;;;2078268;28;20458;-56
2022/09/02 00:55:49;;;;;;;1.75;0.85;;;;;24.90;100632.00;;;;2079185;28;20794;-56
2022/09/02 00:56:50;;;;;;;1.70;1.00;;;;;24.90;100630.00;;;;2094855;28;20262;-56
2022/09/02 00:57:55;;;;;;;0.93;0.60;;;;;24.90;100644.00;;;;2085920;28;20212;-56
2022/09/02 00:58:56;;;;;;;1.10;0.90;;;;;24.90;100604.00;;;;2086389;28;20209;-56
2022/09/02 01:00:03;;;;;;;2.60;0.70;;;;;24.90;100637.00;;;;2070955;28;20465;-55
2022/09/02 01:01:04;;;;;;;0.80;0.63;;;;;24.90;100634.00;;;;2087457;28;20218;-57
2022/09/02 01:02:06;;;;;;;1.53;0.90;;;;;24.90;100692.00;;;;2089734;28;20216;-56
2022/09/02 01:03:09;;;;;;;0.80;0.70;;;;;24.90;100631.00;;;;2086326;28;20256;-56
2022/09/02 01:04:09;;;;;;;1.17;0.80;;;;;24.90;100634.00;;;;2087017;28;20204;-56
2022/09/02 01:05:10;;;;;;;1.67;1.00;;;;;24.90;100634.00;;;;2094502;28;20208;-56
2022/09/02 01:06:14;;;;;;;1.00;0.80;;;;;24.90;100631.00;;;;2094756;28;20208;-56
2022/09/02 01:07:14;;;;;;;1.00;0.87;;;;;24.90;100632.00;;;;2086450;28;20843;-55
2022/09/02 01:08:20;;;;;;;0.93;0.67;;;;;24.90;100633.00;;;;2086561;28;20463;-56
2022/09/02 01:09:20;;;;;;;1.73;0.90;;;;;24.90;100619.00;;;;2087263;28;20443;-56
2022/09/02 01:10:24;;;;;;;1.00;0.70;;;;;24.90;100630.00;;;;2094747;28;20648;-56
2022/09/02 01:11:42;;;;;;;0.82;0.70;;;;;24.90;100636.00;;;;2087149;28;20212;-56
2022/09/02 01:12:42;;;;;;;0.90;0.70;;;;;24.90;100630.00;;;;2088688;28;20231;-56
2022/09/02 01:13:42;;;;;;;0.90;0.80;;;;;24.90;100633.00;;;;2087276;28;20466;-56
2022/09/02 01:14:43;;;;;;;0.80;0.63;;;;;24.90;100629.00;;;;2087122;28;20212;-56
2022/09/02 01:15:49;;;;;;;0.90;0.70;;;;;24.90;100629.00;;;;2087251;28;20205;-56
2022/09/02 01:16:52;;;;;;;1.10;0.90;;;;;24.90;100631.00;;;;2091583;28;20212;-56
2022/09/02 01:17:53;;;;;;;1.07;0.87;;;;;24.90;100630.00;;;;2085859;28;20508;-56
2022/09/02 01:18:54;;;;;;;1.17;0.90;;;;;24.90;100629.00;;;;2086235;28;20457;-55
2022/09/02 01:19:57;;;;;;;0.80;0.60;;;;;24.90;100626.00;;;;2078044;28;20253;-56
2022/09/02 01:20:58;;;;;;;0.82;0.80;;;;;24.40;100634.00;;;;2078312;28;20479;-56
2022/09/02 01:21:58;;;;;;;1.60;1.00;;;;;24.90;100638.00;;;;2079667;28;20648;-56
2022/09/02 01:22:59;;;;;;;1.03;0.60;;;;;24.90;100630.00;;;;2086347;28;20460;-56
2022/09/02 01:23:59;;;;;;;1.50;0.90;;;;;24.90;100630.00;;;;2087247;28;20213;-56
2022/09/02 01:25:11;;;;;;;1.43;0.67;;;;;24.90;100628.00;;;;2078003;28;20213;-56
2022/09/02 01:26:11;;;;;;;1.00;0.77;;;;;24.90;100636.00;;;;2079432;28;20205;-58
2022/09/02 01:27:19;;;;;;;1.90;1.00;;;;;24.90;100627.00;;;;2087014;28;20478;-56
2022/09/02 01:28:19;;;;;;;0.90;0.70;;;;;24.90;100632.00;;;;2087128;28;20209;-56
2022/09/02 01:29:20;;;;;;;1.50;0.60;;;;;24.90;100631.00;;;;2087211;28;20840;-56
2022/09/02 01:30:22;;;;;;;0.90;0.70;;;;;24.90;100626.00;;;;2087924;28;20220;-56
2022/09/02 01:31:22;;;;;;;1.00;0.75;;;;;24.90;100627.00;;;;2095409;28;20927;-56
2022/09/02 01:32:23;;;;;;;0.97;0.70;;;;;24.80;100627.00;;;;2095170;28;20315;-56
2022/09/02 01:33:24;;;;;;;0.80;0.70;;;;;24.90;100629.00;;;;2094518;28;20224;-56
2022/09/02 01:34:24;;;;;;;1.10;0.90;;;;;24.90;100623.00;;;;2094642;28;20269;-56
2022/09/02 01:35:25;;;;;;;0.97;0.70;;;;;24.90;100631.00;;;;2095387;28;20208;-56
2022/09/02 01:36:25;;;;;;;1.00;0.80;;;;;24.90;100624.00;;;;2095162;28;20632;-56
2022/09/02 01:37:25;;;;;;;1.10;0.80;;;;;24.90;100621.00;;;;2094082;28;20286;-56
2022/09/02 01:38:26;;;;;;;1.07;0.80;;;;;24.90;100619.00;;;;2094593;28;20219;-56
2022/09/02 01:39:26;;;;;;;1.17;0.90;;;;;24.90;100621.00;;;;2094672;28;20212;-56
2022/09/02 01:40:27;;;;;;;0.90;0.80;;;;;24.90;100643.00;;;;2094992;28;20688;-56
2022/09/02 01:41:27;;;;;;;1.20;0.80;;;;;24.80;100614.00;;;;2086327;28;20802;-56
2022/09/02 01:42:28;;;;;;;0.90;0.80;;;;;24.90;100612.00;;;;2086159;28;20974;-56
2022/09/02 01:43:28;;;;;;;0.90;0.80;;;;;24.90;100619.00;;;;2094384;28;20216;-56
2022/09/02 01:44:29;;;;;;;0.80;0.67;;;;;24.90;100619.00;;;;2094722;28;20200;-56
2022/09/02 01:45:29;;;;;;;1.77;0.90;;;;;24.90;100621.00;;;;2095138;28;20216;-56
2022/09/02 01:46:30;;;;;;;1.40;0.80;;;;;24.90;100617.00;;;;2095129;28;20208;-56
2022/09/02 01:47:31;;;;;;;1.00;0.70;;;;;24.90;100616.00;;;;2094122;28;20711;-56
2022/09/02 01:48:31;;;;;;;0.90;0.73;;;;;24.90;100617.00;;;;2094364;28;20208;-56
2022/09/02 01:49:32;;;;;;;1.00;0.80;;;;;24.90;100612.00;;;;2086305;28;20839;-56
2022/09/02 01:50:32;;;;;;;1.20;0.80;;;;;24.90;100618.00;;;;2094551;28;20212;-56
2022/09/02 01:51:33;;;;;;;1.50;0.80;;;;;24.90;100614.00;;;;2095162;28;20226;-56
2022/09/02 01:52:33;;;;;;;1.20;1.00;;;;;24.80;100611.00;;;;2095304;28;20231;-56
2022/09/02 01:53:34;;;;;;;1.30;1.20;;;;;24.80;100610.00;;;;2095006;28;20216;-56
2022/09/02 01:54:34;;;;;;;1.10;0.80;;;;;24.80;100609.00;;;;2094891;28;20814;-56
2022/09/02 01:55:34;;;;;;;1.20;0.77;;;;;24.80;100614.00;;;;2095187;28;20575;-56
2022/09/02 01:56:35;;;;;;;1.17;0.90;;;;;24.80;100611.00;;;;2095280;28;20243;-56
2022/09/02 01:57:35;;;;;;;0.83;0.70;;;;;24.80;100603.00;;;;2094428;28;20239;-56
2022/09/02 01:58:35;;;;;;;1.00;0.63;;;;;24.80;100607.00;;;;2086094;28;20217;-56
2022/09/02 01:59:36;;;;;;;1.10;0.77;;;;;24.80;100605.00;;;;2086154;28;20602;-56
2022/09/02 02:00:36;;;;;;;1.10;0.80;;;;;24.80;100609.00;;;;2094990;28;20320;-56
2022/09/02 02:01:36;;;;;;;1.00;0.60;;;;;24.80;100609.00;;;;2092925;28;20347;-56
2022/09/02 02:02:37;;;;;;;3.10;0.70;;;;;24.80;100608.00;;;;2102610;28;20293;-56
2022/09/02 02:03:38;;;;;;;2.60;0.70;;;;;24.80;100604.00;;;;2095231;28;20222;-55
2022/09/02 02:04:38;;;;;;;1.10;0.90;;;;;24.80;100612.00;;;;2092140;28;20501;-60
2022/09/02 02:05:39;;;;;;;0.73;0.73;;;;;24.80;100609.00;;;;2086118;28;20204;-57
2022/09/02 02:06:41;;;;;;;0.93;0.60;;;;;24.80;100606.00;;;;2086528;28;20557;-57
2022/09/02 02:07:42;;;;;;;1.00;0.60;;;;;24.80;100610.00;;;;2085477;28;20259;-56
2022/09/02 02:08:43;;;;;;;1.00;0.70;;;;;24.80;100608.00;;;;2086488;28;20213;-56
2022/09/02 02:09:43;;;;;;;1.30;0.80;;;;;24.80;100614.00;;;;2086461;28;20750;-56
2022/09/02 02:10:43;;;;;;;0.90;0.70;;;;;24.80;100611.00;;;;2086587;28;20712;-56
2022/09/02 02:11:44;;;;;;;1.53;1.00;;;;;24.80;100615.00;;;;2086732;28;20649;-56
2022/09/02 02:12:44;;;;;;;1.30;0.90;;;;;24.80;100611.00;;;;2077939;28;20217;-56
2022/09/02 02:13:45;;;;;;;0.90;0.73;;;;;24.80;100611.00;;;;2077765;28;20214;-56
2022/09/02 02:14:45;;;;;;;1.00;0.80;;;;;24.80;100611.00;;;;2086712;28;20578;-56
2022/09/02 02:15:46;;;;;;;1.20;0.80;;;;;24.80;100607.00;;;;2086765;28;20627;-56
2022/09/02 02:16:47;;;;;;;1.00;0.60;;;;;24.80;100610.00;;;;2086853;28;20213;-56
2022/09/02 02:17:47;;;;;;;1.10;0.77;;;;;24.80;100615.00;;;;2086147;28;20219;-56
2022/09/02 02:18:47;;;;;;;0.90;0.77;;;;;24.80;100611.00;;;;2086999;28;20216;-56
2022/09/02 02:19:48;;;;;;;1.17;0.70;;;;;24.80;100609.00;;;;2086846;28;20283;-56
2022/09/02 02:20:48;;;;;;;0.90;0.77;;;;;24.80;100614.00;;;;2086597;28;20220;-56
2022/09/02 02:21:49;;;;;;;0.87;0.70;;;;;24.80;100582.00;;;;2086876;28;20216;-56
2022/09/02 02:22:49;;;;;;;0.90;0.73;;;;;24.80;100612.00;;;;2086287;28;20719;-56
2022/09/02 02:23:49;;;;;;;1.50;0.73;;;;;24.80;100607.00;;;;2085826;28;20267;-55
2022/09/02 02:24:50;;;;;;;0.80;0.73;;;;;24.80;100611.00;;;;2085689;28;20216;-56
2022/09/02 02:25:50;;;;;;;1.10;0.70;;;;;24.80;100605.00;;;;2085142;28;20208;-56
2022/09/02 02:26:50;;;;;;;1.43;0.67;;;;;24.80;100604.00;;;;2085848;28;20244;-56
2022/09/02 02:27:51;;;;;;;0.90;0.70;;;;;24.80;100604.00;;;;2085652;28;20215;-56
2022/09/02 02:28:51;;;;;;;1.17;0.80;;;;;24.80;100607.00;;;;2086035;28;20212;-56
2022/09/02 02:29:52;;;;;;;1.73;0.73;;;;;24.80;100608.00;;;;2085030;28;20220;-56
2022/09/02 02:30:53;;;;;;;1.23;0.97;;;;;24.80;100609.00;;;;2075550;28;20257;-56
2022/09/02 02:31:53;;;;;;;1.15;0.70;;;;;24.80;100594.00;;;;2085453;28;20731;-56
2022/09/02 02:32:54;;;;;;;1.53;0.90;;;;;24.80;100573.00;;;;2085861;28;20212;-56
2022/09/02 02:33:55;;;;;;;1.30;1.13;;;;;24.80;100615.00;;;;2076956;28;20206;-56
2022/09/02 02:34:55;;;;;;;1.00;0.70;;;;;24.80;100612.00;;;;2076867;28;20213;-56
2022/09/02 02:35:55;;;;;;;0.90;0.70;;;;;24.80;100604.00;;;;2086230;28;20286;-56
2022/09/02 02:36:56;;;;;;;1.20;0.60;;;;;24.80;100605.00;;;;2085943;28;20270;-56
2022/09/02 02:37:56;;;;;;;1.07;0.83;;;;;24.80;100609.00;;;;2087139;28;20595;-56
2022/09/02 02:38:57;;;;;;;0.97;0.70;;;;;24.80;100592.00;;;;2094084;28;20231;-56
2022/09/02 02:39:57;;;;;;;0.90;0.73;;;;;24.80;100611.00;;;;2094460;28;20219;-56
2022/09/02 02:40:58;;;;;;;1.00;0.80;;;;;24.80;100599.00;;;;2094084;28;20677;-56
2022/09/02 02:41:58;;;;;;;1.07;0.97;;;;;24.80;100608.00;;;;2094225;28;20785;-56
2022/09/02 02:42:58;;;;;;;0.80;0.67;;;;;24.80;100610.00;;;;2094231;28;20641;-56
2022/09/02 02:43:59;;;;;;;1.03;0.80;;;;;24.80;100606.00;;;;2094183;28;20596;-56
2022/09/02 02:44:59;;;;;;;1.07;0.90;;;;;24.80;100595.00;;;;2094562;28;20208;-56
2022/09/02 02:45:59;;;;;;;0.97;0.70;;;;;24.80;100596.00;;;;2094347;28;20313;-56
2022/09/02 02:46:59;;;;;;;1.10;0.70;;;;;24.80;100605.00;;;;2094923;28;20224;-56
2022/09/02 02:48:00;;;;;;;0.93;0.80;;;;;24.80;100601.00;;;;2089939;28;20208;-56
2022/09/02 02:49:01;;;;;;;1.00;0.90;;;;;24.80;100604.00;;;;2093821;28;20215;-56
2022/09/02 02:50:02;;;;;;;1.00;0.83;;;;;24.80;100611.00;;;;2093533;28;20583;-56
2022/09/02 02:51:02;;;;;;;1.30;0.83;;;;;24.70;100603.00;;;;2075984;28;20522;-56
2022/09/02 02:52:03;;;;;;;1.20;0.80;;;;;24.80;100600.00;;;;2085797;28;20289;-56
2022/09/02 02:53:03;;;;;;;1.50;0.70;;;;;24.80;100602.00;;;;2093340;28;20240;-55
2022/09/02 02:54:04;;;;;;;0.90;0.70;;;;;24.80;100595.00;;;;2086187;28;20216;-56
2022/09/02 02:55:05;;;;;;;1.00;0.80;;;;;24.80;100599.00;;;;2087504;28;20225;-56
2022/09/02 02:56:05;;;;;;;1.65;0.70;;;;;24.80;100605.00;;;;2087673;28;20216;-56
2022/09/02 02:57:06;;;;;;;1.20;0.73;;;;;24.80;100613.00;;;;2087098;28;20286;-56
2022/09/02 02:58:06;;;;;;;1.00;0.63;;;;;24.80;100606.00;;;;2084938;28;20853;-56
2022/09/02 02:59:07;;;;;;;0.80;0.80;;;;;24.80;100601.00;;;;2087466;28;20402;-56
2022/09/02 03:00:14;;;;;;;1.30;0.87;;;;;24.80;100605.00;;;;2087772;28;20217;-56
2022/09/02 03:01:15;;;;;;;1.13;0.70;;;;;24.70;100603.00;;;;2091938;28;20208;-56
2022/09/02 03:02:16;;;;;;;1.37;0.97;;;;;24.80;100607.00;;;;2095478;28;20881;-56
2022/09/02 03:03:18;;;;;;;1.00;0.87;;;;;24.70;100600.00;;;;2096409;28;20736;-56
2022/09/02 03:04:18;;;;;;;1.00;0.80;;;;;24.80;100598.00;;;;2095440;28;20602;-57
2022/09/02 03:05:19;;;;;;;1.50;0.83;;;;;24.80;100603.00;;;;2095996;28;20218;-57
2022/09/02 03:06:19;;;;;;;1.00;0.87;;;;;24.70;100599.00;;;;2095112;28;20212;-57
2022/09/02 03:07:19;;;;;;;3.37;0.90;;;;;24.80;100599.00;;;;2082089;28;20272;-57
2022/09/02 03:08:20;;;;;;;1.10;0.70;;;;;24.80;100604.00;;;;2086741;28;20256;-57
2022/09/02 03:09:20;;;;;;;1.27;0.80;;;;;24.80;100599.00;;;;2086439;28;20311;-56
2022/09/02 03:10:22;;;;;;;1.20;1.00;;;;;24.80;100588.00;;;;2086812;28;20467;-56
2022/09/02 03:11:22;;;;;;;1.00;0.87;;;;;24.80;100595.00;;;;2086868;28;20221;-56
2022/09/02 03:12:23;;;;;;;0.90;0.70;;;;;24.70;100589.00;;;;2095579;28;20587;-56
2022/09/02 03:13:23;;;;;;;1.10;0.83;;;;;24.80;100596.00;;;;2090232;28;20298;-57
2022/09/02 03:14:25;;;;;;;1.20;0.80;;;;;24.70;100598.00;;;;2086792;28;20292;-56
2022/09/02 03:15:25;;;;;;;1.23;0.70;;;;;24.70;100599.00;;;;2090246;28;20314;-56
2022/09/02 03:16:25;;;;;;;0.97;0.80;;;;;24.80;100600.00;;;;2095086;28;20970;-56
2022/09/02 03:17:25;;;;;;;1.47;0.90;;;;;24.80;100592.00;;;;2094468;28;20224;-55
2022/09/02 03:18:26;;;;;;;1.23;1.00;;;;;24.70;100591.00;;;;2095182;28;20215;-56
2022/09/02 03:19:26;;;;;;;1.00;0.77;;;;;24.80;100595.00;;;;2095648;28;20231;-57
2022/09/02 03:20:26;;;;;;;1.20;0.80;;;;;24.70;100596.00;;;;2095680;28;20258;-55
2022/09/02 03:21:27;;;;;;;1.53;1.10;;;;;24.70;100594.00;;;;2095759;28;20284;-56
2022/09/02 03:22:27;;;;;;;1.00;0.70;;;;;24.70;100596.00;;;;2094512;28;20220;-56
2022/09/02 03:23:28;;;;;;;1.10;0.90;;;;;24.70;100596.00;;;;2087102;28;20233;-56
2022/09/02 03:24:28;;;;;;;0.93;0.70;;;;;24.70;100594.00;;;;2087551;28;20312;-56
2022/09/02 03:25:29;;;;;;;1.10;0.77;;;;;24.80;100599.00;;;;2087298;28;20341;-56
2022/09/02 03:26:29;;;;;;;1.23;1.00;;;;;24.80;100586.00;;;;2087706;28;20261;-56
2022/09/02 03:27:30;;;;;;;1.07;0.77;;;;;24.80;100594.00;;;;2086794;28;20600;-56
2022/09/02 03:28:32;;;;;;;0.90;0.80;;;;;24.80;100593.00;;;;2088234;28;20225;-56
2022/09/02 03:29:32;;;;;;;1.00;0.82;;;;;24.80;100615.00;;;;2087916;28;20244;-56
2022/09/02 03:30:33;;;;;;;1.00;0.70;;;;;24.70;100588.00;;;;2089635;28;20221;-56
2022/09/02 03:31:33;;;;;;;1.20;0.93;;;;;24.70;100593.00;;;;2096249;28;20700;-56
2022/09/02 03:32:33;;;;;;;1.00;0.73;;;;;24.80;100592.00;;;;2096161;28;20293;-56
2022/09/02 03:33:34;;;;;;;0.80;0.70;;;;;24.70;100592.00;;;;2096171;28;20220;-56
2022/09/02 03:34:34;;;;;;;1.30;1.00;;;;;24.70;100590.00;;;;2094556;28;20216;-56
2022/09/02 03:35:39;;;;;;;1.17;0.60;;;;;24.80;100597.00;;;;2096219;28;20699;-56
2022/09/02 03:36:39;;;;;;;1.08;0.60;;;;;24.70;100598.00;;;;2095418;28;20269;-56
2022/09/02 03:37:40;;;;;;;0.90;0.80;;;;;24.70;100598.00;;;;2086496;28;20636;-56
2022/09/02 03:38:40;;;;;;;1.30;1.00;;;;;24.70;100592.00;;;;2095532;28;20216;-56
2022/09/02 03:39:40;;;;;;;0.93;0.83;;;;;24.70;100601.00;;;;2096222;28;20208;-56
2022/09/02 03:40:41;;;;;;;0.90;0.73;;;;;24.70;100588.00;;;;2096413;28;20329;-56
2022/09/02 03:41:41;;;;;;;1.40;0.90;;;;;24.70;100590.00;;;;2096125;28;20208;-56
2022/09/02 03:42:41;;;;;;;1.03;0.77;;;;;24.70;100586.00;;;;2096032;28;20281;-56
2022/09/02 03:43:42;;;;;;;1.10;0.90;;;;;24.70;100590.00;;;;2094219;28;20989;-56
2022/09/02 03:44:42;;;;;;;1.30;0.90;;;;;24.70;100588.00;;;;2095493;28;20646;-56
2022/09/02 03:45:42;;;;;;;1.10;0.87;;;;;24.70;100592.00;;;;2095604;28;20212;-56
2022/09/02 03:46:43;;;;;;;1.00;0.90;;;;;24.70;100588.00;;;;2096272;28;20255;-56
2022/09/02 03:47:50;;;;;;;1.27;0.80;;;;;24.70;100588.00;;;;2094991;28;20253;-56
2022/09/02 03:48:50;;;;;;;1.20;0.68;;;;;24.70;100591.00;;;;2095465;28;20208;-56
2022/09/02 03:49:51;;;;;;;1.00;0.80;;;;;24.70;100581.00;;;;2095347;28;20220;-56
2022/09/02 03:50:51;;;;;;;0.97;0.80;;;;;24.70;100578.00;;;;2096360;28;20215;-56
2022/09/02 03:51:52;;;;;;;1.50;1.00;;;;;24.70;100580.00;;;;2096175;28;20374;-56
2022/09/02 03:52:53;;;;;;;1.63;0.90;;;;;24.70;100589.00;;;;2096171;28;20222;-56
2022/09/02 03:53:54;;;;;;;1.58;0.88;;;;;24.70;100586.00;;;;2094370;28;20262;-56
2022/09/02 03:54:54;;;;;;;1.10;0.80;;;;;24.70;100582.00;;;;2078733;28;20259;-55
2022/09/02 03:55:54;;;;;;;0.90;0.67;;;;;24.70;100593.00;;;;2087309;28;20302;-56
2022/09/02 03:56:55;;;;;;;1.20;0.70;;;;;24.70;100579.00;;;;2087712;28;20327;-55
2022/09/02 03:57:55;;;;;;;1.00;0.80;;;;;24.70;100581.00;;;;2086611;28;20613;-56
2022/09/02 03:58:55;;;;;;;1.30;0.80;;;;;24.70;100582.00;;;;2095575;28;20341;-56
2022/09/02 03:59:56;;;;;;;0.90;0.80;;;;;24.70;100587.00;;;;2094535;28;20226;-56
2022/09/02 04:00:56;;;;;;;0.80;0.57;;;;;24.70;100582.00;;;;2095264;28;20239;-56
2022/09/02 04:01:56;;;;;;;0.73;0.57;;;;;24.70;100586.00;;;;2095435;28;20219;-56
2022/09/02 04:02:57;;;;;;;0.90;0.60;;;;;24.70;100588.00;;;;2096237;28;20345;-56
2022/09/02 04:03:57;;;;;;;1.10;0.60;;;;;24.70;100588.00;;;;2095811;28;20228;-56
2022/09/02 04:04:57;;;;;;;1.00;0.80;;;;;24.70;100588.00;;;;2092854;28;20884;-56
2022/09/02 04:05:58;;;;;;;1.20;1.00;;;;;24.70;100591.00;;;;2086546;28;20843;-56
2022/09/02 04:06:58;;;;;;;1.53;0.90;;;;;24.70;100587.00;;;;2086767;28;20669;-60
2022/09/02 04:07:59;;;;;;;1.10;0.93;;;;;24.70;100590.00;;;;2086212;28;20299;-57
2022/09/02 04:08:59;;;;;;;1.00;0.90;;;;;24.70;100580.00;;;;2096168;28;20269;-57
2022/09/02 04:10:00;;;;;;;0.90;0.70;;;;;24.70;100581.00;;;;2095597;28;20220;-56
2022/09/02 04:11:05;;;;;;;1.10;0.80;;;;;24.70;100592.00;;;;2096049;28;20265;-56
2022/09/02 04:12:05;;;;;;;1.20;1.00;;;;;24.70;100575.00;;;;2089969;28;20559;-56
2022/09/02 04:13:06;;;;;;;0.97;0.80;;;;;24.70;100582.00;;;;2091194;28;20515;-56
2022/09/02 04:14:07;;;;;;;0.90;0.77;;;;;24.70;100576.00;;;;2095725;28;20231;-56
2022/09/02 04:15:08;;;;;;;1.10;0.70;;;;;24.70;100577.00;;;;2090609;28;20716;-56
2022/09/02 04:16:10;;;;;;;0.90;0.80;;;;;24.70;100580.00;;;;2086728;28;20459;-56
2022/09/02 04:17:10;;;;;;;0.98;0.85;;;;;24.70;100579.00;;;;2086978;28;20839;-56
2022/09/02 04:18:11;;;;;;;1.00;0.90;;;;;24.20;100582.00;;;;2086996;28;20205;-56
2022/09/02 04:19:12;;;;;;;0.90;0.70;;;;;24.70;100581.00;;;;2092907;28;20201;-56
2022/09/02 04:20:13;;;;;;;1.07;0.93;;;;;24.70;100579.00;;;;2092737;28;20223;-56
2022/09/02 04:21:13;;;;;;;1.10;0.67;;;;;24.70;100567.00;;;;2095903;28;20464;-56
2022/09/02 04:22:14;;;;;;;1.10;0.90;;;;;24.70;100561.00;;;;2086969;28;20240;-56
2022/09/02 04:23:14;;;;;;;1.00;0.80;;;;;24.70;100569.00;;;;2077260;28;20482;-56
2022/09/02 04:24:14;;;;;;;1.40;0.70;;;;;24.70;100579.00;;;;2103292;28;20215;-56
2022/09/02 04:25:15;;;;;;;1.20;0.87;;;;;24.70;100571.00;;;;2098087;28;20230;-56
2022/09/02 04:26:15;;;;;;;1.00;0.80;;;;;24.70;100565.00;;;;2095551;28;20212;-56
2022/09/02 04:27:16;;;;;;;0.83;0.67;;;;;24.70;100566.00;;;;2091721;28;20232;-56
2022/09/02 04:28:16;;;;;;;1.60;0.70;;;;;24.70;100570.00;;;;2095719;28;20285;-56
2022/09/02 04:29:17;;;;;;;1.30;0.83;;;;;24.70;100570.00;;;;2095813;28;20747;-56
2022/09/02 04:30:17;;;;;;;1.20;0.87;;;;;24.60;100575.00;;;;2095654;28;20220;-56
2022/09/02 04:31:18;;;;;;;1.37;0.80;;;;;24.70;100564.00;;;;2090753;28;20213;-56
2022/09/02 04:32:20;;;;;;;1.00;0.80;;;;;24.70;100568.00;;;;2087453;28;20282;-56
2022/09/02 04:33:20;;;;;;;1.00;0.90;;;;;24.70;100576.00;;;;2086949;28;20644;-56
2022/09/02 04:34:21;;;;;;;1.10;0.80;;;;;24.70;100577.00;;;;2087348;28;20321;-56
2022/09/02 04:35:21;;;;;;;0.90;0.80;;;;;24.70;100574.00;;;;2087765;28;20220;-56
2022/09/02 04:36:21;;;;;;;1.13;0.70;;;;;24.70;100567.00;;;;2087417;28;20209;-56
2022/09/02 04:37:22;;;;;;;0.80;0.70;;;;;24.70;100570.00;;;;2086762;28;20223;-56
2022/09/02 04:38:22;;;;;;;0.90;0.80;;;;;24.70;100576.00;;;;2086353;28;20226;-56
2022/09/02 04:39:22;;;;;;;0.80;0.70;;;;;24.70;100571.00;;;;2087554;28;20216;-56
2022/09/02 04:40:23;;;;;;;1.00;0.70;;;;;24.70;100575.00;;;;2087458;28;20220;-56
2022/09/02 04:41:25;;;;;;;1.10;0.80;;;;;24.70;100574.00;;;;2093944;28;20274;-56
2022/09/02 04:42:25;;;;;;;1.00;0.80;;;;;24.70;100565.00;;;;2088224;28;20216;-56
2022/09/02 04:43:25;;;;;;;1.10;0.90;;;;;24.70;100573.00;;;;2085291;28;20375;-56
2022/09/02 04:44:26;;;;;;;0.80;0.60;;;;;24.70;100570.00;;;;2086358;28;20217;-56
2022/09/02 04:45:26;;;;;;;1.00;0.80;;;;;24.70;100575.00;;;;2087169;28;20213;-56
2022/09/02 04:46:26;;;;;;;1.10;1.00;;;;;24.70;100565.00;;;;2087460;28;20244;-56
2022/09/02 04:47:27;;;;;;;2.00;1.00;;;;;24.70;100564.00;;;;2086658;28;20259;-56
2022/09/02 04:48:28;;;;;;;1.17;1.07;;;;;24.70;100567.00;;;;2085844;28;20299;-56
2022/09/02 04:49:30;;;;;;;1.00;0.77;;;;;24.70;100562.00;;;;2086958;28;20212;-56
2022/09/02 04:50:31;;;;;;;0.80;0.60;;;;;24.70;100567.00;;;;2086289;28;20865;-56
2022/09/02 04:51:31;;;;;;;1.20;0.90;;;;;24.70;100568.00;;;;2086924;28;20224;-56
2022/09/02 04:52:32;;;;;;;1.23;0.90;;;;;24.70;100569.00;;;;2086817;28;20298;-55
2022/09/02 04:53:32;;;;;;;1.10;0.70;;;;;24.70;100565.00;;;;2085853;28;20220;-56
2022/09/02 04:54:33;;;;;;;1.10;0.73;;;;;24.60;100574.00;;;;2078144;28;20275;-56
2022/09/02 04:55:33;;;;;;;1.00;0.80;;;;;24.70;100570.00;;;;2078448;28;20268;-56
2022/09/02 04:56:33;;;;;;;1.00;0.80;;;;;24.70;100565.00;;;;2087346;28;20221;-56
2022/09/02 04:57:34;;;;;;;1.17;0.80;;;;;24.70;100562.00;;;;2086393;28;20243;-56
2022/09/02 04:58:35;;;;;;;1.00;0.80;;;;;24.70;100572.00;;;;2087336;28;20863;-55
2022/09/02 04:59:35;;;;;;;1.27;0.70;;;;;24.70;100557.00;;;;2087110;28;20592;-56
2022/09/02 05:00:37;;;;;;;1.10;0.90;;;;;24.70;100569.00;;;;2087337;28;20217;-56
2022/09/02 05:01:37;;;;;;;1.35;0.82;;;;;24.70;100575.00;;;;2086336;28;20283;-57
2022/09/02 05:02:38;;;;;;;1.47;0.90;;;;;24.70;100564.00;;;;2086706;28;20728;-56